sensor_id;sensor_type;location;lat;lon;timestamp;pressure;altitude;pressure_sealevel;temperature;humidity
48015;BME280;33780;51.034;7.120;2022-08-20T00:01:02;100705.56;;;23.77;62.21
48015;BME280;33780;51.034;7.120;2022-08-20T00:03:31;100698.41;;;23.76;62.68
48015;BME280;33780;51.034;7.120;2022-08-20T00:06:00;100697.56;;;23.75;62.48
48015;BME280;33780;51.034;7.120;2022-08-20T00:08:26;100704.09;;;23.74;62.18
48015;BME280;33780;51.034;7.120;2022-08-20T00:10:53;100698.03;;;23.72;62.61
48015;BME280;33780;51.034;7.120;2022-08-20T00:13:23;100696.34;;;23.71;62.61
48015;BME280;33780;51.034;7.120;2022-08-20T00:15:49;100701.81;;;23.71;62.54
48015;BME280;33780;51.034;7.120;2022-08-20T00:18:15;100696.56;;;23.70;62.45
48015;BME280;33780;51.034;7.120;2022-08-20T00:20:47;100702.22;;;23.68;62.52
48015;BME280;33780;51.034;7.120;2022-08-20T00:23:13;100712.53;;;23.66;62.42
48015;BME280;33780;51.034;7.120;2022-08-20T00:25:40;100702.66;;;23.65;62.98
48015;BME280;33780;51.034;7.120;2022-08-20T00:28:06;100696.81;;;23.62;62.79
48015;BME280;33780;51.034;7.120;2022-08-20T00:30:32;100700.59;;;23.61;62.72
48015;BME280;33780;51.034;7.120;2022-08-20T00:33:03;100695.13;;;23.61;62.75
48015;BME280;33780;51.034;7.120;2022-08-20T00:35:31;100692.41;;;23.61;62.86
48015;BME280;33780;51.034;7.120;2022-08-20T00:37:56;100701.44;;;23.61;62.94
48015;BME280;33780;51.034;7.120;2022-08-20T00:40:26;100695.97;;;23.61;62.81
48015;BME280;33780;51.034;7.120;2022-08-20T00:42:55;100692.41;;;23.61;62.59
48015;BME280;33780;51.034;7.120;2022-08-20T00:45:29;100697.03;;;23.60;62.71
48015;BME280;33780;51.034;7.120;2022-08-20T00:47:55;100706.28;;;23.59;62.79
48015;BME280;33780;51.034;7.120;2022-08-20T00:50:33;100707.13;;;23.60;63.16
48015;BME280;33780;51.034;7.120;2022-08-20T00:53:00;100701.66;;;23.60;63.41
48015;BME280;33780;51.034;7.120;2022-08-20T00:55:28;100690.94;;;23.58;62.92
48015;BME280;33780;51.034;7.120;2022-08-20T00:57:58;100692.84;;;23.58;63.21
48015;BME280;33780;51.034;7.120;2022-08-20T01:00:29;100696.81;;;23.55;64.18
48015;BME280;33780;51.034;7.120;2022-08-20T01:02:56;100701.84;;;23.51;63.81
48015;BME280;33780;51.034;7.120;2022-08-20T01:05:22;100706.91;;;23.48;64.21
48015;BME280;33780;51.034;7.120;2022-08-20T01:07:48;100700.84;;;23.46;64.29
48015;BME280;33780;51.034;7.120;2022-08-20T01:10:17;100702.53;;;23.40;64.41
48015;BME280;33780;51.034;7.120;2022-08-20T01:12:46;100708.44;;;23.37;64.46
48015;BME280;33780;51.034;7.120;2022-08-20T01:15:15;100701.31;;;23.36;64.83
48015;BME280;33780;51.034;7.120;2022-08-20T01:17:48;100693.94;;;23.37;64.62
48015;BME280;33780;51.034;7.120;2022-08-20T01:20:26;100709.50;;;23.36;64.25
48015;BME280;33780;51.034;7.120;2022-08-20T01:23:06;100705.09;;;23.35;64.71
48015;BME280;33780;51.034;7.120;2022-08-20T01:26:09;100705.94;;;23.36;64.85
48015;BME280;33780;51.034;7.120;2022-08-20T01:31:01;100690.78;;;23.33;65.25
48015;BME280;33780;51.034;7.120;2022-08-20T01:33:27;100688.91;;;23.34;65.18
48015;BME280;33780;51.034;7.120;2022-08-20T01:35:53;100687.22;;;23.33;65.79
48015;BME280;33780;51.034;7.120;2022-08-20T01:38:19;100686.38;;;23.32;65.32
48015;BME280;33780;51.034;7.120;2022-08-20T01:43:43;100697.75;;;23.29;65.59
48015;BME280;33780;51.034;7.120;2022-08-20T01:46:09;100686.19;;;23.27;65.69
48015;BME280;33780;51.034;7.120;2022-08-20T01:48:37;100690.81;;;23.27;65.70
48015;BME280;33780;51.034;7.120;2022-08-20T01:51:13;100694.59;;;23.26;65.74
48015;BME280;33780;51.034;7.120;2022-08-20T01:53:43;100696.72;;;23.24;66.06
48015;BME280;33780;51.034;7.120;2022-08-20T01:56:12;100709.75;;;23.21;66.05
48015;BME280;33780;51.034;7.120;2022-08-20T01:58:43;100709.56;;;23.16;66.81
48015;BME280;33780;51.034;7.120;2022-08-20T02:03:49;100714.41;;;23.08;66.60
48015;BME280;33780;51.034;7.120;2022-08-20T02:06:15;100722.59;;;23.08;66.60
48015;BME280;33780;51.034;7.120;2022-08-20T02:08:41;100719.88;;;23.08;66.63
48015;BME280;33780;51.034;7.120;2022-08-20T02:11:08;100720.91;;;23.07;66.75
48015;BME280;33780;51.034;7.120;2022-08-20T02:13:33;100716.50;;;23.06;66.57
48015;BME280;33780;51.034;7.120;2022-08-20T02:15:59;100728.28;;;23.06;66.73
48015;BME280;33780;51.034;7.120;2022-08-20T02:18:24;100729.94;;;23.07;66.47
48015;BME280;33780;51.034;7.120;2022-08-20T02:20:50;100724.69;;;23.06;66.81
48015;BME280;33780;51.034;7.120;2022-08-20T02:23:15;100726.81;;;23.04;66.26
48015;BME280;33780;51.034;7.120;2022-08-20T02:25:43;100716.09;;;23.02;66.44
48015;BME280;33780;51.034;7.120;2022-08-20T02:28:11;100717.16;;;23.01;66.53
48015;BME280;33780;51.034;7.120;2022-08-20T02:30:42;100718.22;;;23.00;66.43
48015;BME280;33780;51.034;7.120;2022-08-20T02:33:10;100717.38;;;23.00;66.13
48015;BME280;33780;51.034;7.120;2022-08-20T02:35:39;100724.91;;;22.98;66.21
48015;BME280;33780;51.034;7.120;2022-08-20T02:38:04;100714.22;;;22.96;66.22
48015;BME280;33780;51.034;7.120;2022-08-20T02:40:31;100709.81;;;22.95;66.03
48015;BME280;33780;51.034;7.120;2022-08-20T02:42:57;100705.63;;;22.92;65.80
48015;BME280;33780;51.034;7.120;2022-08-20T02:45:23;100721.16;;;22.92;66.28
48015;BME280;33780;51.034;7.120;2022-08-20T02:47:48;100720.53;;;22.90;66.25
48015;BME280;33780;51.034;7.120;2022-08-20T02:50:19;100722.63;;;22.88;66.22
48015;BME280;33780;51.034;7.120;2022-08-20T02:52:45;100720.13;;;22.86;66.41
48015;BME280;33780;51.034;7.120;2022-08-20T02:55:12;100722.22;;;22.84;66.36
48015;BME280;33780;51.034;7.120;2022-08-20T02:57:40;100721.38;;;22.84;66.15
48015;BME280;33780;51.034;7.120;2022-08-20T03:00:16;100718.88;;;22.82;66.41
48015;BME280;33780;51.034;7.120;2022-08-20T03:02:43;100719.88;;;22.81;66.39
48015;BME280;33780;51.034;7.120;2022-08-20T03:05:08;100724.69;;;22.79;66.02
48015;BME280;33780;51.034;7.120;2022-08-20T03:07:45;100732.25;;;22.77;66.47
48015;BME280;33780;51.034;7.120;2022-08-20T03:10:11;100721.56;;;22.76;66.21
48015;BME280;33780;51.034;7.120;2022-08-20T03:12:37;100725.34;;;22.75;66.67
48015;BME280;33780;51.034;7.120;2022-08-20T03:15:04;100723.66;;;22.74;66.50
48015;BME280;33780;51.034;7.120;2022-08-20T03:17:30;100720.94;;;22.74;66.70
48015;BME280;33780;51.034;7.120;2022-08-20T03:19:55;100720.09;;;22.73;66.77
48015;BME280;33780;51.034;7.120;2022-08-20T03:22:21;100707.50;;;22.72;66.45
48015;BME280;33780;51.034;7.120;2022-08-20T03:24:46;100703.09;;;22.71;66.62
48015;BME280;33780;51.034;7.120;2022-08-20T03:27:11;100708.78;;;22.70;66.78
48015;BME280;33780;51.034;7.120;2022-08-20T03:29:37;100706.03;;;22.70;66.78
48015;BME280;33780;51.034;7.120;2022-08-20T03:32:02;100707.09;;;22.69;66.98
48015;BME280;33780;51.034;7.120;2022-08-20T03:34:28;100705.41;;;22.68;66.65
48015;BME280;33780;51.034;7.120;2022-08-20T03:36:53;100705.63;;;22.66;66.50
48015;BME280;33780;51.034;7.120;2022-08-20T03:39:19;100705.84;;;22.65;66.92
48015;BME280;33780;51.034;7.120;2022-08-20T03:41:44;100702.50;;;22.63;66.37
48015;BME280;33780;51.034;7.120;2022-08-20T03:44:09;100704.56;;;22.60;67.23
48015;BME280;33780;51.034;7.120;2022-08-20T03:46:35;100702.03;;;22.59;67.16
48015;BME280;33780;51.034;7.120;2022-08-20T03:49:00;100702.25;;;22.57;67.35
48015;BME280;33780;51.034;7.120;2022-08-20T03:51:27;100707.09;;;22.55;66.86
48015;BME280;33780;51.034;7.120;2022-08-20T03:53:53;100708.16;;;22.54;66.88
48015;BME280;33780;51.034;7.120;2022-08-20T03:56:18;100688.44;;;22.52;66.96
48015;BME280;33780;51.034;7.120;2022-08-20T03:58:44;100682.13;;;22.52;67.14
48015;BME280;33780;51.034;7.120;2022-08-20T04:01:10;100694.09;;;22.51;67.50
48015;BME280;33780;51.034;7.120;2022-08-20T04:03:35;100702.28;;;22.51;67.30
48015;BME280;33780;51.034;7.120;2022-08-20T04:06:01;100699.75;;;22.49;67.33
48015;BME280;33780;51.034;7.120;2022-08-20T04:08:27;100694.72;;;22.46;67.37
48015;BME280;33780;51.034;7.120;2022-08-20T04:10:54;100701.25;;;22.45;67.34
48015;BME280;33780;51.034;7.120;2022-08-20T04:13:23;100698.50;;;22.45;67.41
48015;BME280;33780;51.034;7.120;2022-08-20T04:15:50;100701.41;;;22.44;67.71
48015;BME280;33780;51.034;7.120;2022-08-20T04:18:17;100709.81;;;22.42;67.63
48015;BME280;33780;51.034;7.120;2022-08-20T04:20:45;100708.13;;;22.41;67.49
48015;BME280;33780;51.034;7.120;2022-08-20T04:23:11;100722.81;;;22.40;67.56
48015;BME280;33780;51.034;7.120;2022-08-20T04:25:38;100720.31;;;22.39;67.45
48015;BME280;33780;51.034;7.120;2022-08-20T04:28:10;100724.09;;;22.38;67.79
48015;BME280;33780;51.034;7.120;2022-08-20T04:30:36;100730.38;;;22.38;67.89
48015;BME280;33780;51.034;7.120;2022-08-20T04:33:02;100743.16;;;22.38;67.96
48015;BME280;33780;51.034;7.120;2022-08-20T04:35:28;100737.72;;;22.38;68.04
48015;BME280;33780;51.034;7.120;2022-08-20T04:38:02;100738.75;;;22.37;67.75
48015;BME280;33780;51.034;7.120;2022-08-20T04:40:29;100745.06;;;22.37;67.90
48015;BME280;33780;51.034;7.120;2022-08-20T04:43:13;100742.34;;;22.37;68.07
48015;BME280;33780;51.034;7.120;2022-08-20T04:45:38;100753.25;;;22.37;67.81
48015;BME280;33780;51.034;7.120;2022-08-20T04:48:05;100753.25;;;22.37;67.88
48015;BME280;33780;51.034;7.120;2022-08-20T04:50:34;100745.06;;;22.37;67.96
48015;BME280;33780;51.034;7.120;2022-08-20T04:53:04;100752.41;;;22.37;67.88
48015;BME280;33780;51.034;7.120;2022-08-20T04:55:31;100758.69;;;22.37;68.04
48015;BME280;33780;51.034;7.120;2022-08-20T04:58:12;100750.50;;;22.37;68.04
48015;BME280;33780;51.034;7.120;2022-08-20T05:00:38;100751.34;;;22.38;68.12
48015;BME280;33780;51.034;7.120;2022-08-20T05:03:04;100759.53;;;22.38;68.21
48015;BME280;33780;51.034;7.120;2022-08-20T05:05:33;100759.53;;;22.38;67.88
48015;BME280;33780;51.034;7.120;2022-08-20T05:08:03;100757.66;;;22.38;68.25
48015;BME280;33780;51.034;7.120;2022-08-20T05:10:28;100758.69;;;22.37;68.23
48015;BME280;33780;51.034;7.120;2022-08-20T05:12:54;100760.38;;;22.38;68.12
48015;BME280;33780;51.034;7.120;2022-08-20T05:15:19;100765.81;;;22.38;68.35
48015;BME280;33780;51.034;7.120;2022-08-20T05:17:45;100765.00;;;22.38;68.68
48015;BME280;33780;51.034;7.120;2022-08-20T05:20:17;100770.44;;;22.38;68.64
48015;BME280;33780;51.034;7.120;2022-08-20T05:22:43;100766.03;;;22.37;68.82
48015;BME280;33780;51.034;7.120;2022-08-20T05:25:26;100770.66;;;22.36;68.78
48015;BME280;33780;51.034;7.120;2022-08-20T05:28:17;100771.06;;;22.33;69.32
48015;BME280;33780;51.034;7.120;2022-08-20T05:30:44;100782.19;;;22.31;69.37
48015;BME280;33780;51.034;7.120;2022-08-20T05:33:11;100784.25;;;22.23;70.33
48015;BME280;33780;51.034;7.120;2022-08-20T05:35:46;100783.41;;;22.16;70.10
48015;BME280;33780;51.034;7.120;2022-08-20T05:38:14;100772.91;;;22.13;70.08
48015;BME280;33780;51.034;7.120;2022-08-20T05:40:43;100770.41;;;22.11;70.23
48015;BME280;33780;51.034;7.120;2022-08-20T05:43:08;100767.47;;;22.13;70.53
48015;BME280;33780;51.034;7.120;2022-08-20T05:45:35;100768.72;;;22.10;71.15
48015;BME280;33780;51.034;7.120;2022-08-20T05:48:06;100769.94;;;22.08;70.99
48015;BME280;33780;51.034;7.120;2022-08-20T05:50:32;100773.72;;;22.07;71.16
48015;BME280;33780;51.034;7.120;2022-08-20T05:52:58;100765.53;;;22.07;70.74
48015;BME280;33780;51.034;7.120;2022-08-20T05:55:25;100777.28;;;22.07;71.22
48015;BME280;33780;51.034;7.120;2022-08-20T05:57:59;100774.56;;;22.07;71.45
48015;BME280;33780;51.034;7.120;2022-08-20T06:00:25;100775.41;;;22.08;71.51
48015;BME280;33780;51.034;7.120;2022-08-20T06:02:53;100778.13;;;22.08;71.33
48015;BME280;33780;51.034;7.120;2022-08-20T06:05:37;100777.28;;;22.07;71.34
48015;BME280;33780;51.034;7.120;2022-08-20T06:08:04;100782.75;;;22.07;71.22
48015;BME280;33780;51.034;7.120;2022-08-20T06:10:33;100786.31;;;22.08;71.83
48015;BME280;33780;51.034;7.120;2022-08-20T06:12:58;100789.25;;;22.06;71.66
48015;BME280;33780;51.034;7.120;2022-08-20T06:15:23;100782.09;;;22.05;71.69
48015;BME280;33780;51.034;7.120;2022-08-20T06:17:49;100780.41;;;22.04;71.89
48015;BME280;33780;51.034;7.120;2022-08-20T06:20:16;100784.84;;;22.05;71.48
48015;BME280;33780;51.034;7.120;2022-08-20T06:22:42;100790.09;;;22.07;71.86
48015;BME280;33780;51.034;7.120;2022-08-20T06:25:08;100777.69;;;22.04;71.83
48015;BME280;33780;51.034;7.120;2022-08-20T06:27:37;100786.72;;;22.05;72.04
48015;BME280;33780;51.034;7.120;2022-08-20T06:30:04;100786.91;;;22.03;71.66
48015;BME280;33780;51.034;7.120;2022-08-20T06:32:29;100789.63;;;22.03;71.62
48015;BME280;33780;51.034;7.120;2022-08-20T06:34:55;100795.91;;;22.03;71.86
48015;BME280;33780;51.034;7.120;2022-08-20T06:37:25;100792.34;;;22.03;71.76
48015;BME280;33780;51.034;7.120;2022-08-20T06:39:51;100796.13;;;22.02;72.35
48015;BME280;33780;51.034;7.120;2022-08-20T06:42:18;100800.53;;;22.03;71.86
48015;BME280;33780;51.034;7.120;2022-08-20T06:44:47;100801.38;;;22.03;71.80
48015;BME280;33780;51.034;7.120;2022-08-20T06:47:19;100808.69;;;22.03;72.53
48015;BME280;33780;51.034;7.120;2022-08-20T06:49:45;100812.47;;;22.02;72.47
48015;BME280;33780;51.034;7.120;2022-08-20T06:52:10;100814.34;;;22.01;72.32
48015;BME280;33780;51.034;7.120;2022-08-20T06:54:36;100811.00;;;21.99;72.34
48015;BME280;33780;51.034;7.120;2022-08-20T06:57:02;100816.44;;;21.99;72.04
48015;BME280;33780;51.034;7.120;2022-08-20T06:59:28;100814.13;;;21.96;72.25
48015;BME280;33780;51.034;7.120;2022-08-20T07:01:55;100823.16;;;21.97;71.97
48015;BME280;33780;51.034;7.120;2022-08-20T07:04:22;100819.16;;;21.93;71.72
48015;BME280;33780;51.034;7.120;2022-08-20T07:06:48;100815.59;;;21.92;71.80
48015;BME280;33780;51.034;7.120;2022-08-20T07:09:17;100813.91;;;21.91;71.66
48015;BME280;33780;51.034;7.120;2022-08-20T07:11:42;100817.69;;;21.90;71.55
48015;BME280;33780;51.034;7.120;2022-08-20T07:14:08;100820.59;;;21.89;71.57
48015;BME280;33780;51.034;7.120;2022-08-20T07:16:33;100820.59;;;21.89;71.47
48015;BME280;33780;51.034;7.120;2022-08-20T07:18:58;100829.81;;;21.88;71.56
48015;BME280;33780;51.034;7.120;2022-08-20T07:21:23;100824.34;;;21.88;71.56
48015;BME280;33780;51.034;7.120;2022-08-20T07:23:49;100824.34;;;21.88;71.59
48015;BME280;33780;51.034;7.120;2022-08-20T07:26:16;100828.13;;;21.87;71.79
48015;BME280;33780;51.034;7.120;2022-08-20T07:28:41;100825.81;;;21.84;72.03
48015;BME280;33780;51.034;7.120;2022-08-20T07:31:06;100836.72;;;21.84;71.69
48015;BME280;33780;51.034;7.120;2022-08-20T07:33:50;100830.63;;;21.82;71.77
48015;BME280;33780;51.034;7.120;2022-08-20T07:36:16;100838.81;;;21.82;72.04
48015;BME280;33780;51.034;7.120;2022-08-20T07:38:42;100840.91;;;21.80;71.67
48015;BME280;33780;51.034;7.120;2022-08-20T07:41:11;100846.13;;;21.81;71.76
48015;BME280;33780;51.034;7.120;2022-08-20T07:43:37;100846.13;;;21.81;71.96
48015;BME280;33780;51.034;7.120;2022-08-20T07:46:04;100845.31;;;21.81;71.88
48015;BME280;33780;51.034;7.120;2022-08-20T07:48:38;100852.63;;;21.80;71.64
48015;BME280;33780;51.034;7.120;2022-08-20T07:51:05;100855.16;;;21.82;71.23
48015;BME280;33780;51.034;7.120;2022-08-20T07:53:32;100846.97;;;21.82;71.68
48015;BME280;33780;51.034;7.120;2022-08-20T07:56:00;100851.19;;;21.84;71.45
48015;BME280;33780;51.034;7.120;2022-08-20T07:58:25;100859.34;;;21.84;71.42
48015;BME280;33780;51.034;7.120;2022-08-20T08:00:51;100852.03;;;21.85;71.61
48015;BME280;33780;51.034;7.120;2022-08-20T08:03:16;100863.97;;;21.84;71.41
48015;BME280;33780;51.034;7.120;2022-08-20T08:05:44;100862.91;;;21.85;71.65
48015;BME280;33780;51.034;7.120;2022-08-20T08:08:13;100863.13;;;21.83;71.53
48015;BME280;33780;51.034;7.120;2022-08-20T08:10:40;100864.81;;;21.84;71.18
48015;BME280;33780;51.034;7.120;2022-08-20T08:13:08;100864.59;;;21.86;71.25
48015;BME280;33780;51.034;7.120;2022-08-20T08:15:36;100865.44;;;21.86;71.47
48015;BME280;33780;51.034;7.120;2022-08-20T08:18:07;100873.22;;;21.89;71.45
48015;BME280;33780;51.034;7.120;2022-08-20T08:20:35;100869.91;;;21.94;71.41
48015;BME280;33780;51.034;7.120;2022-08-20T08:23:04;100868.66;;;21.96;71.35
48015;BME280;33780;51.034;7.120;2022-08-20T08:25:30;100862.16;;;22.04;71.57
48015;BME280;33780;51.034;7.120;2022-08-20T08:27:57;100868.06;;;22.08;71.03
48015;BME280;33780;51.034;7.120;2022-08-20T08:30:24;100874.00;;;22.11;71.20
48015;BME280;33780;51.034;7.120;2022-08-20T08:32:50;100877.16;;;22.15;70.85
48015;BME280;33780;51.034;7.120;2022-08-20T08:35:36;100874.22;;;22.16;70.81
48015;BME280;33780;51.034;7.120;2022-08-20T08:38:02;100879.47;;;22.18;70.55
48015;BME280;33780;51.034;7.120;2022-08-20T08:40:29;100880.94;;;22.20;70.52
48015;BME280;33780;51.034;7.120;2022-08-20T08:42:56;100880.09;;;22.20;70.43
48015;BME280;33780;51.034;7.120;2022-08-20T08:45:28;100888.47;;;22.18;69.85
48015;BME280;33780;51.034;7.120;2022-08-20T08:47:58;100887.44;;;22.19;70.63
48015;BME280;33780;51.034;7.120;2022-08-20T08:50:27;100881.13;;;22.19;70.05
48015;BME280;33780;51.034;7.120;2022-08-20T08:52:56;100885.75;;;22.18;70.09
48015;BME280;33780;51.034;7.120;2022-08-20T08:55:26;100888.69;;;22.17;70.18
48015;BME280;33780;51.034;7.120;2022-08-20T08:57:54;100894.13;;;22.17;69.77
48015;BME280;33780;51.034;7.120;2022-08-20T09:00:21;100901.06;;;22.19;69.91
48015;BME280;33780;51.034;7.120;2022-08-20T09:03:06;100913.84;;;22.19;69.95
48015;BME280;33780;51.034;7.120;2022-08-20T09:05:43;100909.25;;;22.19;69.46
48015;BME280;33780;51.034;7.120;2022-08-20T09:08:12;100915.75;;;22.18;69.29
48015;BME280;33780;51.034;7.120;2022-08-20T09:10:39;100915.75;;;22.18;69.26
48015;BME280;33780;51.034;7.120;2022-08-20T09:13:05;100917.00;;;22.16;69.41
48015;BME280;33780;51.034;7.120;2022-08-20T09:15:31;100916.34;;;22.14;69.95
48015;BME280;33780;51.034;7.120;2022-08-20T09:17:57;100921.16;;;22.12;69.00
48015;BME280;33780;51.034;7.120;2022-08-20T09:20:22;100927.03;;;22.09;68.88
48015;BME280;33780;51.034;7.120;2022-08-20T09:22:48;100927.22;;;22.07;69.16
48015;BME280;33780;51.034;7.120;2022-08-20T09:25:14;100926.56;;;22.05;68.95
48015;BME280;33780;51.034;7.120;2022-08-20T09:27:39;100935.75;;;22.04;68.50
48015;BME280;33780;51.034;7.120;2022-08-20T09:30:06;100931.56;;;22.01;68.52
48015;BME280;33780;51.034;7.120;2022-08-20T09:32:31;100932.59;;;22.00;68.73
48015;BME280;33780;51.034;7.120;2022-08-20T09:34:57;100933.84;;;21.98;68.51
48015;BME280;33780;51.034;7.120;2022-08-20T09:37:25;100932.56;;;21.94;68.13
48015;BME280;33780;51.034;7.120;2022-08-20T09:39:51;100930.25;;;21.91;67.81
48015;BME280;33780;51.034;7.120;2022-08-20T09:42:26;100925.81;;;21.90;68.03
48015;BME280;33780;51.034;7.120;2022-08-20T09:44:52;100936.72;;;21.90;68.48
48015;BME280;33780;51.034;7.120;2022-08-20T09:47:18;100936.28;;;21.86;68.52
48015;BME280;33780;51.034;7.120;2022-08-20T09:49:45;100936.28;;;21.86;68.55
48015;BME280;33780;51.034;7.120;2022-08-20T09:52:28;100948.84;;;21.81;68.29
48015;BME280;33780;51.034;7.120;2022-08-20T09:57:40;100936.41;;;21.71;68.06
48015;BME280;33780;51.034;7.120;2022-08-20T10:00:07;100943.28;;;21.67;67.85
48015;BME280;33780;51.034;7.120;2022-08-20T10:02:33;100945.16;;;21.67;68.28
48015;BME280;33780;51.034;7.120;2022-08-20T10:04:58;100943.28;;;21.67;68.47
48015;BME280;33780;51.034;7.120;2022-08-20T10:07:24;100940.38;;;21.69;68.61
48015;BME280;33780;51.034;7.120;2022-08-20T10:09:49;100953.59;;;21.72;67.99
48015;BME280;33780;51.034;7.120;2022-08-20T10:12:14;100945.59;;;21.70;67.88
48015;BME280;33780;51.034;7.120;2022-08-20T10:14:40;100945.59;;;21.70;68.38
48015;BME280;33780;51.034;7.120;2022-08-20T10:17:05;100944.41;;;21.73;68.33
48015;BME280;33780;51.034;7.120;2022-08-20T10:19:30;100949.25;;;21.78;67.75
48015;BME280;33780;51.034;7.120;2022-08-20T10:21:56;100948.41;;;21.77;67.89
48015;BME280;33780;51.034;7.120;2022-08-20T10:24:22;100946.72;;;21.76;67.63
48015;BME280;33780;51.034;7.120;2022-08-20T10:26:48;100953.84;;;21.77;67.91
48015;BME280;33780;51.034;7.120;2022-08-20T10:29:14;100952.59;;;21.80;68.17
48015;BME280;33780;51.034;7.120;2022-08-20T10:31:39;100958.69;;;21.82;67.48
48015;BME280;33780;51.034;7.120;2022-08-20T10:34:04;100952.19;;;21.83;67.89
48015;BME280;33780;51.034;7.120;2022-08-20T10:36:30;100946.16;;;21.87;67.76
48015;BME280;33780;51.034;7.120;2022-08-20T10:38:55;100953.13;;;21.96;68.12
48015;BME280;33780;51.034;7.120;2022-08-20T10:41:20;100949.38;;;22.04;67.98
48015;BME280;33780;51.034;7.120;2022-08-20T10:43:46;100959.53;;;22.10;67.83
48015;BME280;33780;51.034;7.120;2022-08-20T10:46:12;100954.53;;;22.14;67.29
48015;BME280;33780;51.034;7.120;2022-08-20T10:48:38;100958.53;;;22.18;67.57
48015;BME280;33780;51.034;7.120;2022-08-20T10:51:03;100955.59;;;22.19;67.24
48015;BME280;33780;51.034;7.120;2022-08-20T10:53:29;100951.41;;;22.23;67.32
48015;BME280;33780;51.034;7.120;2022-08-20T10:55:55;100950.00;;;22.27;67.17
48015;BME280;33780;51.034;7.120;2022-08-20T10:58:22;100960.06;;;22.27;67.13
48015;BME280;33780;51.034;7.120;2022-08-20T11:00:47;100957.13;;;22.28;67.17
48015;BME280;33780;51.034;7.120;2022-08-20T11:03:13;100952.09;;;22.32;67.05
48015;BME280;33780;51.034;7.120;2022-08-20T11:05:38;100957.56;;;22.32;65.84
48015;BME280;33780;51.034;7.120;2022-08-20T11:08:04;100958.81;;;22.29;66.39
48015;BME280;33780;51.034;7.120;2022-08-20T11:10:31;100956.72;;;22.31;66.53
48015;BME280;33780;51.034;7.120;2022-08-20T11:12:58;100951.25;;;22.31;66.04
48015;BME280;33780;51.034;7.120;2022-08-20T11:15:24;100950.41;;;22.31;65.72
48015;BME280;33780;51.034;7.120;2022-08-20T11:17:49;100943.72;;;22.34;66.44
48015;BME280;33780;51.034;7.120;2022-08-20T11:20:17;100951.91;;;22.40;66.78
48015;BME280;33780;51.034;7.120;2022-08-20T11:22:43;100949.03;;;22.48;66.51
48015;BME280;33780;51.034;7.120;2022-08-20T11:25:08;100945.66;;;22.53;65.89
48015;BME280;33780;51.034;7.120;2022-08-20T11:27:37;100945.28;;;22.63;65.76
48015;BME280;33780;51.034;7.120;2022-08-20T11:30:06;100953.91;;;22.73;65.42
48015;BME280;33780;51.034;7.120;2022-08-20T11:32:32;100946.22;;;22.83;64.56
48015;BME280;33780;51.034;7.120;2022-08-20T11:34:57;100943.06;;;22.86;63.62
48015;BME280;33780;51.034;7.120;2022-08-20T11:37:23;100943.91;;;22.93;63.43
48015;BME280;33780;51.034;7.120;2022-08-20T11:39:49;100940.75;;;22.96;63.63
48015;BME280;33780;51.034;7.120;2022-08-20T11:42:15;100943.31;;;23.04;64.04
48015;BME280;33780;51.034;7.120;2022-08-20T11:44:40;100939.53;;;23.05;63.66
48015;BME280;33780;51.034;7.120;2022-08-20T11:47:07;100949.19;;;23.08;63.73
48015;BME280;33780;51.034;7.120;2022-08-20T11:49:36;100946.69;;;23.06;62.13
48015;BME280;33780;51.034;7.120;2022-08-20T11:52:02;100946.88;;;22.98;62.11
48015;BME280;33780;51.034;7.120;2022-08-20T11:54:28;100945.00;;;22.99;61.53
48015;BME280;33780;51.034;7.120;2022-08-20T11:56:54;100951.28;;;22.99;62.03
48015;BME280;33780;51.034;7.120;2022-08-20T11:59:24;100941.84;;;23.08;62.63
48015;BME280;33780;51.034;7.120;2022-08-20T12:01:49;100938.50;;;23.19;60.99
48015;BME280;33780;51.034;7.120;2022-08-20T12:04:18;100939.53;;;23.32;61.08
48015;BME280;33780;51.034;7.120;2022-08-20T12:06:43;100943.53;;;23.42;60.96
48015;BME280;33780;51.034;7.120;2022-08-20T12:09:09;100938.94;;;23.36;57.53
48015;BME280;33780;51.034;7.120;2022-08-20T12:11:34;100935.78;;;23.39;59.93
48015;BME280;33780;51.034;7.120;2022-08-20T12:14:01;100945.88;;;23.39;60.50
48015;BME280;33780;51.034;7.120;2022-08-20T12:16:27;100940.63;;;23.37;59.52
48015;BME280;33780;51.034;7.120;2022-08-20T12:18:52;100934.94;;;23.39;59.43
48015;BME280;33780;51.034;7.120;2022-08-20T12:21:18;100933.03;;;23.39;60.34
48015;BME280;33780;51.034;7.120;2022-08-20T12:23:43;100931.13;;;23.33;58.50
48015;BME280;33780;51.034;7.120;2022-08-20T12:26:09;100927.78;;;23.31;59.87
48015;BME280;33780;51.034;7.120;2022-08-20T12:28:34;100932.41;;;23.37;60.31
48015;BME280;33780;51.034;7.120;2022-08-20T12:31:00;100921.06;;;23.47;60.00
48015;BME280;33780;51.034;7.120;2022-08-20T12:33:25;100912.88;;;23.54;60.24
48015;BME280;33780;51.034;7.120;2022-08-20T12:35:51;100920.66;;;23.63;59.81
48015;BME280;33780;51.034;7.120;2022-08-20T12:38:16;100920.22;;;23.73;59.87
48015;BME280;33780;51.034;7.120;2022-08-20T12:40:42;100918.72;;;23.84;59.51
48015;BME280;33780;51.034;7.120;2022-08-20T12:43:07;100920.41;;;23.91;59.89
48015;BME280;33780;51.034;7.120;2022-08-20T12:45:34;100919.09;;;24.00;58.97
48015;BME280;33780;51.034;7.120;2022-08-20T12:48:03;100913.63;;;24.07;58.86
48015;BME280;33780;51.034;7.120;2022-08-20T12:50:29;100916.53;;;24.12;59.56
48015;BME280;33780;51.034;7.120;2022-08-20T12:52:54;100920.34;;;24.11;59.04
48015;BME280;33780;51.034;7.120;2022-08-20T12:55:20;100908.13;;;24.14;58.60
48015;BME280;33780;51.034;7.120;2022-08-20T12:57:50;100913.78;;;24.19;58.65
48015;BME280;33780;51.034;7.120;2022-08-20T13:02:47;100912.69;;;24.33;57.19
48015;BME280;33780;51.034;7.120;2022-08-20T13:05:14;100916.66;;;24.37;57.06